sensor_id;sensor_type;location;lat;lon;timestamp;pressure;altitude;pressure_sealevel;temperature;humidity
61474;BME280;53694;49.784;30.150;2022-08-02T00:00:31;99138.14;;;22.23;72.91
61474;BME280;53694;49.784;30.150;2022-08-02T00:01:33;99151.31;;;22.57;71.87
61474;BME280;53694;49.784;30.150;2022-08-02T00:02:35;99145.00;;;22.87;70.84
61474;BME280;53694;49.784;30.150;2022-08-02T00:03:37;99145.81;;;23.19;69.70
61474;BME280;53694;49.784;30.150;2022-08-02T00:04:38;99153.12;;;23.48;68.56
61474;BME280;53694;49.784;30.150;2022-08-02T00:05:40;99141.71;;;23.73;67.63
61474;BME280;53694;49.784;30.150;2022-08-02T00:06:42;99151.88;;;23.89;66.73
61474;BME280;53694;49.784;30.150;2022-08-02T00:07:44;99147.97;;;23.86;66.39
61474;BME280;53694;49.784;30.150;2022-08-02T00:08:45;99141.98;;;23.66;66.30
61474;BME280;53694;49.784;30.150;2022-08-02T00:09:47;99146.36;;;23.36;66.84
61474;BME280;53694;49.784;30.150;2022-08-02T00:10:49;99146.06;;;23.03;68.09
61474;BME280;53694;49.784;30.150;2022-08-02T00:11:50;99142.98;;;22.66;68.54
61474;BME280;53694;49.784;30.150;2022-08-02T00:12:52;99139.57;;;22.27;69.62
61474;BME280;53694;49.784;30.150;2022-08-02T00:13:54;99138.41;;;21.90;70.76
61474;BME280;53694;49.784;30.150;2022-08-02T00:14:55;99139.90;;;21.56;71.55
61474;BME280;53694;49.784;30.150;2022-08-02T00:15:57;99135.62;;;21.26;72.56
61474;BME280;53694;49.784;30.150;2022-08-02T00:16:59;99131.02;;;21.07;73.44
61474;BME280;53694;49.784;30.150;2022-08-02T00:18:01;99138.28;;;21.04;73.59
61474;BME280;53694;49.784;30.150;2022-08-02T00:19:03;99142.20;;;21.19;73.27
61474;BME280;53694;49.784;30.150;2022-08-02T00:20:05;99138.66;;;21.44;72.66
61474;BME280;53694;49.784;30.150;2022-08-02T00:21:07;99134.96;;;21.73;71.27
61474;BME280;53694;49.784;30.150;2022-08-02T00:22:10;99136.70;;;22.05;70.30
61474;BME280;53694;49.784;30.150;2022-08-02T00:23:12;99132.81;;;22.37;68.73
61474;BME280;53694;49.784;30.150;2022-08-02T00:24:14;99137.70;;;22.68;67.22
61474;BME280;53694;49.784;30.150;2022-08-02T00:25:16;99139.17;;;22.94;66.44
61474;BME280;53694;49.784;30.150;2022-08-02T00:26:18;99139.73;;;23.11;66.00
61474;BME280;53694;49.784;30.150;2022-08-02T00:27:20;99144.09;;;23.12;65.51
61474;BME280;53694;49.784;30.150;2022-08-02T00:28:22;99142.62;;;22.99;65.62
61474;BME280;53694;49.784;30.150;2022-08-02T00:29:24;99147.87;;;22.75;66.07
61474;BME280;53694;49.784;30.150;2022-08-02T00:30:26;99140.06;;;22.48;66.81
61474;BME280;53694;49.784;30.150;2022-08-02T00:31:28;99137.59;;;22.15;67.88
61474;BME280;53694;49.784;30.150;2022-08-02T00:32:30;99140.99;;;21.84;68.57
61474;BME280;53694;49.784;30.150;2022-08-02T00:33:31;99134.77;;;21.55;69.91
61474;BME280;53694;49.784;30.150;2022-08-02T00:34:33;99134.84;;;21.26;70.93
61474;BME280;53694;49.784;30.150;2022-08-02T00:35:35;99132.02;;;21.00;72.74
61474;BME280;53694;49.784;30.150;2022-08-02T00:36:36;99138.66;;;20.77;73.29
61474;BME280;53694;49.784;30.150;2022-08-02T00:37:43;99136.64;;;20.65;74.21
61474;BME280;53694;49.784;30.150;2022-08-02T00:38:42;99143.23;;;20.71;74.26
61474;BME280;53694;49.784;30.150;2022-08-02T00:39:44;99129.44;;;20.93;73.64
61474;BME280;53694;49.784;30.150;2022-08-02T00:40:47;99130.92;;;21.23;73.45
61474;BME280;53694;49.784;30.150;2022-08-02T00:41:51;99134.66;;;21.58;72.88
61474;BME280;53694;49.784;30.150;2022-08-02T00:43:05;99133.48;;;21.94;70.81
61474;BME280;53694;49.784;30.150;2022-08-02T00:44:07;99133.52;;;22.29;69.96
61474;BME280;53694;49.784;30.150;2022-08-02T00:45:10;99131.20;;;22.71;69.08
61474;BME280;53694;49.784;30.150;2022-08-02T00:46:13;99130.34;;;23.05;67.27
61474;BME280;53694;49.784;30.150;2022-08-02T00:47:15;99133.09;;;23.27;66.09
61474;BME280;53694;49.784;30.150;2022-08-02T00:48:17;99133.88;;;23.28;64.77
61474;BME280;53694;49.784;30.150;2022-08-02T00:49:19;99129.61;;;23.14;64.85
61474;BME280;53694;49.784;30.150;2022-08-02T00:50:22;99133.70;;;22.91;65.76
61474;BME280;53694;49.784;30.150;2022-08-02T00:51:24;99138.75;;;22.61;66.82
61474;BME280;53694;49.784;30.150;2022-08-02T00:52:26;99125.47;;;22.31;68.08
61474;BME280;53694;49.784;30.150;2022-08-02T00:53:27;99124.08;;;22.01;69.54
61474;BME280;53694;49.784;30.150;2022-08-02T00:54:29;99123.47;;;21.71;69.81
61474;BME280;53694;49.784;30.150;2022-08-02T00:55:31;99123.92;;;21.44;70.74
61474;BME280;53694;49.784;30.150;2022-08-02T00:56:34;99119.08;;;21.19;71.49
61474;BME280;53694;49.784;30.150;2022-08-02T00:57:36;99117.39;;;20.96;72.39
61474;BME280;53694;49.784;30.150;2022-08-02T00:58:37;99123.73;;;20.84;73.17
61474;BME280;53694;49.784;30.150;2022-08-02T00:59:39;99118.37;;;20.89;73.34
61474;BME280;53694;49.784;30.150;2022-08-02T01:00:41;99120.52;;;21.11;73.19
61474;BME280;53694;49.784;30.150;2022-08-02T01:01:42;99127.95;;;21.43;72.21
61474;BME280;53694;49.784;30.150;2022-08-02T01:02:44;99115.29;;;21.77;70.94
61474;BME280;53694;49.784;30.150;2022-08-02T01:03:46;99124.48;;;22.12;69.76
61474;BME280;53694;49.784;30.150;2022-08-02T01:04:48;99120.59;;;22.44;68.22
61474;BME280;53694;49.784;30.150;2022-08-02T01:05:49;99120.99;;;22.77;67.09
61474;BME280;53694;49.784;30.150;2022-08-02T01:06:51;99124.23;;;22.98;66.04
61474;BME280;53694;49.784;30.150;2022-08-02T01:07:53;99122.08;;;23.02;65.53
61474;BME280;53694;49.784;30.150;2022-08-02T01:08:54;99122.03;;;22.92;65.49
61474;BME280;53694;49.784;30.150;2022-08-02T01:09:56;99121.12;;;22.74;66.05
61474;BME280;53694;49.784;30.150;2022-08-02T01:10:58;99117.98;;;22.50;66.76
61474;BME280;53694;49.784;30.150;2022-08-02T01:12:00;99118.98;;;22.21;67.50
61474;BME280;53694;49.784;30.150;2022-08-02T01:13:02;99117.59;;;21.91;68.42
61474;BME280;53694;49.784;30.150;2022-08-02T01:14:13;99115.42;;;21.60;69.10
61474;BME280;53694;49.784;30.150;2022-08-02T01:15:12;99111.52;;;21.32;70.22
61474;BME280;53694;49.784;30.150;2022-08-02T01:16:18;99108.81;;;21.03;71.29
61474;BME280;53694;49.784;30.150;2022-08-02T01:18:46;99116.20;;;20.68;73.54
61474;BME280;53694;49.784;30.150;2022-08-02T01:22:55;99110.97;;;21.50;71.91
61474;BME280;53694;49.784;30.150;2022-08-02T01:29:33;99107.08;;;23.58;64.65
61474;BME280;53694;49.784;30.150;2022-08-02T01:30:36;99114.86;;;23.54;64.06
61474;BME280;53694;49.784;30.150;2022-08-02T01:33:03;99112.46;;;23.03;64.81
61474;BME280;53694;49.784;30.150;2022-08-02T01:35:25;99103.45;;;22.20;67.19
61474;BME280;53694;49.784;30.150;2022-08-02T01:36:37;99106.33;;;21.82;68.39
61474;BME280;53694;49.784;30.150;2022-08-02T01:37:54;99115.78;;;21.50;69.90
61474;BME280;53694;49.784;30.150;2022-08-02T01:38:55;99108.47;;;21.14;71.39
61474;BME280;53694;49.784;30.150;2022-08-02T01:40:00;99113.44;;;20.81;72.48
61474;BME280;53694;49.784;30.150;2022-08-02T01:41:04;99110.94;;;20.57;73.74
61474;BME280;53694;49.784;30.150;2022-08-02T01:42:08;99109.64;;;20.45;74.84
61474;BME280;53694;49.784;30.150;2022-08-02T01:43:12;99114.28;;;20.52;75.25
61474;BME280;53694;49.784;30.150;2022-08-02T01:44:15;99106.50;;;20.72;74.90
61474;BME280;53694;49.784;30.150;2022-08-02T01:45:20;99106.91;;;21.00;74.16
61474;BME280;53694;49.784;30.150;2022-08-02T01:46:24;99115.89;;;21.33;73.17
61474;BME280;53694;49.784;30.150;2022-08-02T01:47:34;99112.52;;;21.64;72.03
61474;BME280;53694;49.784;30.150;2022-08-02T01:48:33;99113.02;;;21.97;70.89
61474;BME280;53694;49.784;30.150;2022-08-02T01:49:36;99113.16;;;22.28;69.73
61474;BME280;53694;49.784;30.150;2022-08-02T01:50:41;99120.53;;;22.57;68.34
61474;BME280;53694;49.784;30.150;2022-08-02T01:51:46;99119.93;;;22.84;67.21
61474;BME280;53694;49.784;30.150;2022-08-02T01:52:50;99111.34;;;23.00;66.05
61474;BME280;53694;49.784;30.150;2022-08-02T01:53:53;99105.23;;;22.92;65.50
61474;BME280;53694;49.784;30.150;2022-08-02T01:55:10;99112.72;;;22.74;66.04
61474;BME280;53694;49.784;30.150;2022-08-02T01:56:15;99109.28;;;22.48;66.48
61474;BME280;53694;49.784;30.150;2022-08-02T01:57:19;99110.77;;;22.05;67.11
61474;BME280;53694;49.784;30.150;2022-08-02T01:58:24;99105.89;;;21.70;68.43
61474;BME280;53694;49.784;30.150;2022-08-02T01:59:28;99109.74;;;21.38;69.48
61474;BME280;53694;49.784;30.150;2022-08-02T02:00:34;99109.03;;;21.09;70.75
61474;BME280;53694;49.784;30.150;2022-08-02T02:01:38;99111.89;;;20.80;71.90
61474;BME280;53694;49.784;30.150;2022-08-02T02:02:45;99114.16;;;20.56;73.02
61474;BME280;53694;49.784;30.150;2022-08-02T02:03:48;99110.52;;;20.42;73.52
61474;BME280;53694;49.784;30.150;2022-08-02T02:04:50;99113.59;;;20.48;73.91
61474;BME280;53694;49.784;30.150;2022-08-02T02:05:56;99109.84;;;20.67;73.52
61474;BME280;53694;49.784;30.150;2022-08-02T02:06:59;99104.56;;;20.99;72.72
61474;BME280;53694;49.784;30.150;2022-08-02T02:08:03;99107.83;;;21.35;71.56
61474;BME280;53694;49.784;30.150;2022-08-02T02:09:07;99106.70;;;21.71;70.21
61474;BME280;53694;49.784;30.150;2022-08-02T02:10:13;99105.95;;;22.05;68.61
61474;BME280;53694;49.784;30.150;2022-08-02T02:11:15;99105.61;;;22.38;67.53
61474;BME280;53694;49.784;30.150;2022-08-02T02:12:17;99111.95;;;22.73;66.78
61474;BME280;53694;49.784;30.150;2022-08-02T02:13:19;99108.38;;;22.94;65.70
61474;BME280;53694;49.784;30.150;2022-08-02T02:14:22;99109.02;;;22.99;65.49
61474;BME280;53694;49.784;30.150;2022-08-02T02:15:25;99120.27;;;22.86;65.56
61474;BME280;53694;49.784;30.150;2022-08-02T02:16:28;99118.70;;;22.63;66.02
61474;BME280;53694;49.784;30.150;2022-08-02T02:17:30;99111.02;;;22.32;67.23
61474;BME280;53694;49.784;30.150;2022-08-02T02:18:37;99109.95;;;22.04;68.39
61474;BME280;53694;49.784;30.150;2022-08-02T02:19:38;99107.37;;;21.75;69.50
61474;BME280;53694;49.784;30.150;2022-08-02T02:20:41;99113.09;;;21.46;70.75
61474;BME280;53694;49.784;30.150;2022-08-02T02:21:43;99120.31;;;21.18;71.99
61474;BME280;53694;49.784;30.150;2022-08-02T02:22:45;99110.34;;;20.91;73.19
61474;BME280;53694;49.784;30.150;2022-08-02T02:23:48;99110.42;;;20.75;73.98
61474;BME280;53694;49.784;30.150;2022-08-02T02:24:50;99115.13;;;20.78;74.18
61474;BME280;53694;49.784;30.150;2022-08-02T02:25:52;99109.12;;;20.92;73.80
61474;BME280;53694;49.784;30.150;2022-08-02T02:26:54;99116.42;;;21.15;73.10
61474;BME280;53694;49.784;30.150;2022-08-02T02:28:02;99117.23;;;21.41;72.24
61474;BME280;53694;49.784;30.150;2022-08-02T02:29:06;99120.78;;;21.67;70.88
61474;BME280;53694;49.784;30.150;2022-08-02T02:30:10;99117.83;;;21.96;69.80
61474;BME280;53694;49.784;30.150;2022-08-02T02:31:14;99113.28;;;22.25;68.50
61474;BME280;53694;49.784;30.150;2022-08-02T02:32:17;99122.80;;;22.49;67.70
61474;BME280;53694;49.784;30.150;2022-08-02T02:33:21;99114.34;;;22.62;66.90
61474;BME280;53694;49.784;30.150;2022-08-02T02:34:31;99113.39;;;22.56;66.67
61474;BME280;53694;49.784;30.150;2022-08-02T02:35:35;99114.78;;;22.38;66.92
61474;BME280;53694;49.784;30.150;2022-08-02T02:36:40;99114.19;;;22.09;67.85
61474;BME280;53694;49.784;30.150;2022-08-02T02:37:44;99110.83;;;21.79;68.92
61474;BME280;53694;49.784;30.150;2022-08-02T02:38:49;99117.77;;;21.49;70.02
61474;BME280;53694;49.784;30.150;2022-08-02T02:39:53;99113.49;;;21.19;70.99
61474;BME280;53694;49.784;30.150;2022-08-02T02:40:58;99116.39;;;20.90;72.13
61474;BME280;53694;49.784;30.150;2022-08-02T02:42:02;99115.23;;;20.75;73.15
61474;BME280;53694;49.784;30.150;2022-08-02T02:43:07;99113.12;;;20.79;73.52
61474;BME280;53694;49.784;30.150;2022-08-02T02:44:13;99111.35;;;20.97;73.26
61474;BME280;53694;49.784;30.150;2022-08-02T02:45:15;99117.73;;;21.23;72.55
61474;BME280;53694;49.784;30.150;2022-08-02T02:46:19;99120.02;;;21.54;71.78
61474;BME280;53694;49.784;30.150;2022-08-02T02:47:21;99110.25;;;21.84;70.63
61474;BME280;53694;49.784;30.150;2022-08-02T02:48:24;99120.47;;;22.13;69.73
61474;BME280;53694;49.784;30.150;2022-08-02T02:49:27;99121.19;;;22.39;68.58
61474;BME280;53694;49.784;30.150;2022-08-02T02:50:34;99125.85;;;22.64;67.64
61474;BME280;53694;49.784;30.150;2022-08-02T02:51:38;99118.19;;;22.77;66.93
61474;BME280;53694;49.784;30.150;2022-08-02T02:52:41;99122.80;;;22.71;66.84
61474;BME280;53694;49.784;30.150;2022-08-02T02:53:43;99127.03;;;22.54;67.36
61474;BME280;53694;49.784;30.150;2022-08-02T02:54:47;99122.79;;;22.27;68.05
61474;BME280;53694;49.784;30.150;2022-08-02T02:55:49;99115.81;;;21.97;68.99
61474;BME280;53694;49.784;30.150;2022-08-02T02:56:53;99115.63;;;21.66;70.16
61474;BME280;53694;49.784;30.150;2022-08-02T02:57:55;99120.56;;;21.36;71.38
61474;BME280;53694;49.784;30.150;2022-08-02T02:58:57;99110.27;;;21.08;72.61
61474;BME280;53694;49.784;30.150;2022-08-02T03:00:00;99104.77;;;20.91;73.56
61474;BME280;53694;49.784;30.150;2022-08-02T03:01:02;99106.33;;;20.92;74.03
61474;BME280;53694;49.784;30.150;2022-08-02T03:02:05;99109.03;;;21.09;74.03
61474;BME280;53694;49.784;30.150;2022-08-02T03:03:08;99115.89;;;21.33;73.46
61474;BME280;53694;49.784;30.150;2022-08-02T03:04:11;99116.66;;;21.59;72.54
61474;BME280;53694;49.784;30.150;2022-08-02T03:05:14;99116.94;;;21.87;71.61
61474;BME280;53694;49.784;30.150;2022-08-02T03:06:18;99108.73;;;22.18;70.44
61474;BME280;53694;49.784;30.150;2022-08-02T03:07:19;99111.42;;;22.43;69.33
61474;BME280;53694;49.784;30.150;2022-08-02T03:08:21;99113.75;;;22.67;68.47
61474;BME280;53694;49.784;30.150;2022-08-02T03:09:23;99115.45;;;22.86;67.91
61474;BME280;53694;49.784;30.150;2022-08-02T03:10:25;99109.02;;;22.99;67.33
61474;BME280;53694;49.784;30.150;2022-08-02T03:11:27;99115.05;;;22.97;67.06
61474;BME280;53694;49.784;30.150;2022-08-02T03:12:30;99118.19;;;22.77;67.50
61474;BME280;53694;49.784;30.150;2022-08-02T03:13:31;99111.15;;;22.51;68.23
61474;BME280;53694;49.784;30.150;2022-08-02T03:14:33;99109.05;;;22.20;69.23
61474;BME280;53694;49.784;30.150;2022-08-02T03:15:36;99105.32;;;21.88;70.41
61474;BME280;53694;49.784;30.150;2022-08-02T03:16:44;99110.29;;;21.59;71.54
61474;BME280;53694;49.784;30.150;2022-08-02T03:17:46;99117.52;;;21.31;72.82
61474;BME280;53694;49.784;30.150;2022-08-02T03:18:48;99102.99;;;21.10;73.97
61474;BME280;53694;49.784;30.150;2022-08-02T03:19:49;99112.96;;;21.24;74.41
61474;BME280;53694;49.784;30.150;2022-08-02T03:20:51;99112.96;;;21.24;74.41
61474;BME280;53694;49.784;30.150;2022-08-02T03:21:53;99103.48;;;21.47;74.00
61474;BME280;53694;49.784;30.150;2022-08-02T03:22:55;99105.89;;;21.70;73.15
61474;BME280;53694;49.784;30.150;2022-08-02T03:23:57;99112.55;;;21.99;72.51
61474;BME280;53694;49.784;30.150;2022-08-02T03:24:58;99101.66;;;22.26;71.17
61474;BME280;53694;49.784;30.150;2022-08-02T03:26:00;99114.16;;;22.56;70.37
61474;BME280;53694;49.784;30.150;2022-08-02T03:27:02;99108.42;;;22.82;69.19
61474;BME280;53694;49.784;30.150;2022-08-02T03:28:04;99115.91;;;23.07;68.33
61474;BME280;53694;49.784;30.150;2022-08-02T03:29:07;99108.22;;;23.29;67.39
61474;BME280;53694;49.784;30.150;2022-08-02T03:30:11;99114.16;;;23.40;66.86
61474;BME280;53694;49.784;30.150;2022-08-02T03:31:13;99112.30;;;23.37;66.76
61474;BME280;53694;49.784;30.150;2022-08-02T03:32:14;99114.09;;;23.22;67.03
61474;BME280;53694;49.784;30.150;2022-08-02T03:33:22;99114.15;;;23.00;67.63
61474;BME280;53694;49.784;30.150;2022-08-02T03:34:21;99115.05;;;22.75;68.29
61474;BME280;53694;49.784;30.150;2022-08-02T03:35:23;99111.42;;;22.43;69.22
61474;BME280;53694;49.784;30.150;2022-08-02T03:36:28;99106.38;;;22.16;70.32
61474;BME280;53694;49.784;30.150;2022-08-02T03:37:31;99108.12;;;21.88;71.38
61474;BME280;53694;49.784;30.150;2022-08-02T03:38:34;99114.96;;;21.62;72.66
61474;BME280;53694;49.784;30.150;2022-08-02T03:39:37;99109.52;;;21.45;73.67
61474;BME280;53694;49.784;30.150;2022-08-02T03:40:41;99112.17;;;21.49;74.00
61474;BME280;53694;49.784;30.150;2022-08-02T03:41:43;99107.59;;;21.68;73.94
61474;BME280;53694;49.784;30.150;2022-08-02T03:42:47;99110.66;;;21.95;73.19
61474;BME280;53694;49.784;30.150;2022-08-02T03:43:50;99117.20;;;22.27;72.23
61474;BME280;53694;49.784;30.150;2022-08-02T03:44:54;99114.81;;;22.60;70.85
61474;BME280;53694;49.784;30.150;2022-08-02T03:45:57;99117.67;;;22.91;69.28
61474;BME280;53694;49.784;30.150;2022-08-02T03:46:59;99117.81;;;23.19;68.58
61474;BME280;53694;49.784;30.150;2022-08-02T03:48:02;99112.33;;;23.47;67.51
61474;BME280;53694;49.784;30.150;2022-08-02T03:49:06;99113.62;;;23.64;66.66
61474;BME280;53694;49.784;30.150;2022-08-02T03:50:12;99102.41;;;23.64;66.36
61474;BME280;53694;49.784;30.150;2022-08-02T03:51:14;99112.19;;;23.50;66.31
61474;BME280;53694;49.784;30.150;2022-08-02T03:52:15;99117.36;;;23.20;66.86
61474;BME280;53694;49.784;30.150;2022-08-02T03:53:18;99102.43;;;22.92;67.99
61474;BME280;53694;49.784;30.150;2022-08-02T03:54:21;99109.06;;;22.64;68.95
61474;BME280;53694;49.784;30.150;2022-08-02T03:55:23;99103.87;;;22.31;69.98
61474;BME280;53694;49.784;30.150;2022-08-02T03:56:26;99100.02;;;22.03;71.23
61474;BME280;53694;49.784;30.150;2022-08-02T03:57:29;99102.09;;;21.77;72.31
61474;BME280;53694;49.784;30.150;2022-08-02T03:58:31;99102.48;;;21.54;73.43
61474;BME280;53694;49.784;30.150;2022-08-02T03:59:41;99098.11;;;21.40;74.40
61474;BME280;53694;49.784;30.150;2022-08-02T04:00:43;99105.14;;;21.44;74.67
61474;BME280;53694;49.784;30.150;2022-08-02T04:01:45;99098.43;;;21.67;74.56
61474;BME280;53694;49.784;30.150;2022-08-02T04:02:47;99106.30;;;21.94;73.77
61474;BME280;53694;49.784;30.150;2022-08-02T04:03:49;99100.84;;;22.26;72.82
61474;BME280;53694;49.784;30.150;2022-08-02T04:04:51;99111.55;;;22.62;71.66
61474;BME280;53694;49.784;30.150;2022-08-02T04:05:53;99110.39;;;22.94;69.86
61474;BME280;53694;49.784;30.150;2022-08-02T04:06:55;99118.14;;;23.21;68.58
61474;BME280;53694;49.784;30.150;2022-08-02T04:07:56;99107.97;;;23.45;67.71
61474;BME280;53694;49.784;30.150;2022-08-02T04:08:58;99103.34;;;23.61;66.49
61474;BME280;53694;49.784;30.150;2022-08-02T04:10:00;99109.08;;;23.57;66.66
61474;BME280;53694;49.784;30.150;2022-08-02T04:11:01;99107.64;;;23.43;66.77
61474;BME280;53694;49.784;30.150;2022-08-02T04:12:04;99113.31;;;23.22;67.37
61474;BME280;53694;49.784;30.150;2022-08-02T04:13:05;99108.67;;;22.97;68.16
61474;BME280;53694;49.784;30.150;2022-08-02T04:14:08;99113.75;;;22.67;69.00
61474;BME280;53694;49.784;30.150;2022-08-02T04:15:12;99113.22;;;22.37;70.07
61474;BME280;53694;49.784;30.150;2022-08-02T04:16:22;99110.50;;;22.12;71.00
61474;BME280;53694;49.784;30.150;2022-08-02T04:17:24;99099.07;;;21.84;72.12
61474;BME280;53694;49.784;30.150;2022-08-02T04:18:35;99108.69;;;21.70;73.08
61474;BME280;53694;49.784;30.150;2022-08-02T04:19:52;99105.00;;;21.74;73.36
61474;BME280;53694;49.784;30.150;2022-08-02T04:20:54;99105.98;;;21.92;73.04
61474;BME280;53694;49.784;30.150;2022-08-02T04:21:59;99115.95;;;22.28;72.14
61474;BME280;53694;49.784;30.150;2022-08-02T04:23:04;99110.30;;;22.63;70.86
61474;BME280;53694;49.784;30.150;2022-08-02T04:24:08;99108.67;;;22.97;69.38
61474;BME280;53694;49.784;30.150;2022-08-02T04:25:12;99116.29;;;23.27;68.29
61474;BME280;53694;49.784;30.150;2022-08-02T04:26:15;99107.53;;;23.56;67.08
61474;BME280;53694;49.784;30.150;2022-08-02T04:27:19;99108.41;;;23.75;66.34
61474;BME280;53694;49.784;30.150;2022-08-02T04:28:21;99108.70;;;23.77;66.14
61474;BME280;53694;49.784;30.150;2022-08-02T04:29:25;99101.97;;;23.65;66.25
61474;BME280;53694;49.784;30.150;2022-08-02T04:30:29;99106.87;;;23.43;66.57
61474;BME280;53694;49.784;30.150;2022-08-02T04:31:32;99104.88;;;23.12;67.40
61474;BME280;53694;49.784;30.150;2022-08-02T04:32:34;99109.20;;;22.82;68.31
61474;BME280;53694;49.784;30.150;2022-08-02T04:33:37;99100.73;;;22.51;69.43
61474;BME280;53694;49.784;30.150;2022-08-02T04:34:38;99105.01;;;22.21;70.48
61474;BME280;53694;49.784;30.150;2022-08-02T04:35:40;99101.95;;;21.93;71.85
61474;BME280;53694;49.784;30.150;2022-08-02T04:36:42;99101.11;;;21.71;73.00
61474;BME280;53694;49.784;30.150;2022-08-02T04:37:44;99104.36;;;21.57;74.01
61474;BME280;53694;49.784;30.150;2022-08-02T04:38:48;99109.37;;;21.62;74.26
61474;BME280;53694;49.784;30.150;2022-08-02T04:39:50;99101.98;;;21.81;73.63
61474;BME280;53694;49.784;30.150;2022-08-02T04:40:53;99105.37;;;22.10;72.65
61474;BME280;53694;49.784;30.150;2022-08-02T04:41:56;99105.17;;;22.39;71.58
61474;BME280;53694;49.784;30.150;2022-08-02T04:42:58;99102.30;;;22.74;70.23
61474;BME280;53694;49.784;30.150;2022-08-02T04:44:00;99113.11;;;23.07;69.08
61474;BME280;53694;49.784;30.150;2022-08-02T04:45:02;99109.50;;;23.37;67.71
61474;BME280;53694;49.784;30.150;2022-08-02T04:46:04;99104.33;;;23.67;66.83
61474;BME280;53694;49.784;30.150;2022-08-02T04:47:06;99103.44;;;23.88;65.93
61474;BME280;53694;49.784;30.150;2022-08-02T04:48:08;99106.55;;;23.90;65.37
61474;BME280;53694;49.784;30.150;2022-08-02T04:49:10;99105.12;;;23.77;65.08
61474;BME280;53694;49.784;30.150;2022-08-02T04:50:13;99114.52;;;23.52;65.64
61474;BME280;53694;49.784;30.150;2022-08-02T04:51:14;99110.05;;;23.23;66.54
61474;BME280;53694;49.784;30.150;2022-08-02T04:52:16;99111.17;;;22.94;67.51
61474;BME280;53694;49.784;30.150;2022-08-02T04:53:18;99107.38;;;22.66;68.50
61474;BME280;53694;49.784;30.150;2022-08-02T04:54:20;99109.66;;;22.37;69.56
61474;BME280;53694;49.784;30.150;2022-08-02T04:55:22;99108.59;;;22.09;70.57
61474;BME280;53694;49.784;30.150;2022-08-02T04:56:25;99105.87;;;21.83;71.78
61474;BME280;53694;49.784;30.150;2022-08-02T04:57:27;99114.96;;;21.62;72.89
61474;BME280;53694;49.784;30.150;2022-08-02T04:58:28;99114.55;;;21.51;73.96
61474;BME280;53694;49.784;30.150;2022-08-02T04:59:30;99104.81;;;21.55;74.10
61474;BME280;53694;49.784;30.150;2022-08-02T05:00:32;99103.65;;;21.78;73.71
61474;BME280;53694;49.784;30.150;2022-08-02T05:01:34;99115.77;;;22.10;72.75
61474;BME280;53694;49.784;30.150;2022-08-02T05:02:36;99117.80;;;22.44;71.46
61474;BME280;53694;49.784;30.150;2022-08-02T05:03:38;99116.48;;;22.80;70.14
61474;BME280;53694;49.784;30.150;2022-08-02T05:04:39;99118.75;;;23.16;68.79
61474;BME280;53694;49.784;30.150;2022-08-02T05:05:41;99117.02;;;23.50;67.62
61474;BME280;53694;49.784;30.150;2022-08-02T05:06:43;99084.44;;;23.83;66.27
61474;BME280;53694;49.784;30.150;2022-08-02T05:07:45;99117.17;;;24.05;65.16
61474;BME280;53694;49.784;30.150;2022-08-02T05:08:47;99128.22;;;24.08;64.97
61474;BME280;53694;49.784;30.150;2022-08-02T05:09:49;99122.30;;;23.97;64.79
61474;BME280;53694;49.784;30.150;2022-08-02T05:10:51;99119.28;;;23.73;65.36
61474;BME280;53694;49.784;30.150;2022-08-02T05:11:53;99126.34;;;23.47;65.99
61474;BME280;53694;49.784;30.150;2022-08-02T05:12:54;99129.17;;;23.15;66.82
61474;BME280;53694;49.784;30.150;2022-08-02T05:13:56;99129.11;;;22.84;67.69
61474;BME280;53694;49.784;30.150;2022-08-02T05:14:58;99129.52;;;22.52;68.62
61474;BME280;53694;49.784;30.150;2022-08-02T05:15:59;99127.38;;;22.21;69.71
61474;BME280;53694;49.784;30.150;2022-08-02T05:17:01;99125.09;;;21.94;70.96
61474;BME280;53694;49.784;30.150;2022-08-02T05:18:03;99127.81;;;21.72;72.00
61474;BME280;53694;49.784;30.150;2022-08-02T05:19:04;99132.41;;;21.53;73.05
61474;BME280;53694;49.784;30.150;2022-08-02T05:20:07;99131.52;;;21.43;73.72
61474;BME280;53694;49.784;30.150;2022-08-02T05:21:09;99126.03;;;21.53;73.99
61474;BME280;53694;49.784;30.150;2022-08-02T05:22:11;99127.36;;;21.74;73.51
61474;BME280;53694;49.784;30.150;2022-08-02T05:23:13;99124.74;;;22.05;72.56
61474;BME280;53694;49.784;30.150;2022-08-02T05:24:14;99127.80;;;22.76;69.59
61474;BME280;53694;49.784;30.150;2022-08-02T05:25:16;99127.80;;;22.76;69.59
61474;BME280;53694;49.784;30.150;2022-08-02T05:26:18;99127.41;;;23.09;68.99
61474;BME280;53694;49.784;30.150;2022-08-02T05:27:20;99134.38;;;23.35;68.12
61474;BME280;53694;49.784;30.150;2022-08-02T05:28:21;99136.41;;;23.35;66.48
61474;BME280;53694;49.784;30.150;2022-08-02T05:29:23;99136.41;;;23.35;66.48
61474;BME280;53694;49.784;30.150;2022-08-02T05:30:25;99143.02;;;23.19;66.91
61474;BME280;53694;49.784;30.150;2022-08-02T05:31:27;99140.72;;;22.95;67.50
61474;BME280;53694;49.784;30.150;2022-08-02T05:32:29;99142.86;;;22.69;68.41
61474;BME280;53694;49.784;30.150;2022-08-02T05:33:30;99138.63;;;22.43;69.17
61474;BME280;53694;49.784;30.150;2022-08-02T05:34:32;99143.50;;;22.17;70.03
61474;BME280;53694;49.784;30.150;2022-08-02T05:35:34;99145.12;;;21.92;71.07
61474;BME280;53694;49.784;30.150;2022-08-02T05:36:36;99141.44;;;21.70;72.22
61474;BME280;53694;49.784;30.150;2022-08-02T05:37:37;99146.61;;;21.59;73.32
61474;BME280;53694;49.784;30.150;2022-08-02T05:38:39;99151.63;;;21.64;73.90
61474;BME280;53694;49.784;30.150;2022-08-02T05:39:41;99146.23;;;21.82;73.55
61474;BME280;53694;49.784;30.150;2022-08-02T05:40:42;99144.86;;;22.12;72.76
61474;BME280;53694;49.784;30.150;2022-08-02T05:41:44;99155.26;;;22.46;71.22